Terminal Aerodrome Forecast
Issued by NWS Cleveland, OH

Home | Current Version | Previous Version | Graphics & Text | Print | Product List | Glossary On
Versions: 1 2 3 4 5 6 7 8 9 10 11 12 13 14 15 16 17 18 19 20 21 22 23 24 25
000
FTUS41 KCLE 030731 AAC
TAFCLE
TAF AMD
KCLE 030731Z 0308/0412 23010KT 6SM -RA BR SCT035 OVC080
     FM030900 24012KT P6SM BKN050
     FM031400 27010KT P6SM BKN035
     FM032100 27010KT P6SM SCT250=

USA.gov is the U.S. government's official web portal to all federal, state and local government web resources and services.